Flight Track Log - Related Links

Times and Time Zones

All times are in EDT time to prevent confusion due to time zone crossing. See the AAL621 flight status page for this flight to view local times or setup timezone preferences in your user account.

Time Position Orientation Groundspeed Altitude Reporting Facility
EDT Latitude Longitude Course Direction KTS MPH feet Rate Location/Type
Sat 04:04:05 PM 32.8833 -97.0500 180° South 169 194 1,700  Level Dallas / Fort Worth TRACON
Sat 04:06:00 PM 32.5670 -96.9777 196° South  Level FlightAware Approximate
Sat 04:06:22 PM 32.7431 -97.0578 183° South 237 273 7,700  Level Fort Worth Center
Sat 04:07:00 PM 32.4608 -97.0079 190° South  Level FlightAware Approximate
Sat 04:07:22 PM 32.6700 -97.0581 180° South 250 288 10,400  Level Fort Worth Center
Sat 04:08:00 PM 32.3529 -97.0294 190° South  Level FlightAware Approximate
Sat 04:08:22 PM 32.5844 -97.0583 180° South 284 327 12,300  Level Fort Worth Center
Sat 04:09:00 PM 32.2458 -97.0500 180° South  Level FlightAware Approximate
Sat 04:09:22 PM 32.4883 -97.0586 180° South 337 388 14,800  Level Fort Worth Center
Sat 04:10:22 PM 32.3883 -97.0592 180° South 359 413 17,200 2,350 Climbing Fort Worth Center
Sat 04:11:22 PM 32.2922 -97.0619 181° South 376 433 19,500 2,150 Climbing Fort Worth Center
Sat 04:12:22 PM 32.1817 -97.0647 181° South 388 447 21,500 1,900 Climbing Fort Worth Center
Sat 04:13:22 PM 32.0708 -97.0872 190° South 400 460 23,300 1,850 Climbing Fort Worth Center
Sat 04:14:22 PM 31.9500 -97.1194 193° South 413 475 25,200 1,750 Climbing Fort Worth Center
Sat 04:15:22 PM 31.8353 -97.1517 193° South 418 481 26,800 1,683 Climbing Fort Worth Center
Sat 04:17:06 PM 31.6414 -97.2011 192° South 433 498 29,800 1,164 Climbing Houston Center
Sat 04:18:07 PM 31.5256 -97.2308 192° South 423 487 30,000 98 Climbing Houston Center
Sat 04:19:09 PM 31.4100 -97.2628 193° South 423 487 30,000  Level Houston Center
Sat 04:20:11 PM 31.2947 -97.2925 192° South 421 484 30,000  Level Houston Center
Sat 04:21:13 PM 31.1783 -97.3233 193° South 423 487 30,000 -585 Level Houston Center
Sat 04:22:14 PM 31.0439 -97.3594 193° South 426 490 28,800 -1,366 Descending Houston Center
Sat 04:23:16 PM 30.9303 -97.3897 193° South 426 490 27,200 -1,597 Descending Houston Center
Sat 04:24:18 PM 30.8183 -97.4175 192° South 415 478 25,500 -1,645 Descending Houston Center
Sat 04:25:20 PM 30.7072 -97.4453 192° South 407 468 23,800 -1,645 Descending Houston Center
Sat 04:26:22 PM 30.5969 -97.4744 193° South 404 465 22,100 -1,805 Descending Houston Center
Sat 04:27:23 PM 30.4714 -97.5069 193° South 394 453 20,100 -1,805 Descending Houston Center
Sat 04:28:25 PM 30.3650 -97.5394 195° South 392 451 18,400 -1,742 Descending Houston Center
Sat 04:29:27 PM 30.2750 -97.6053 212° Southwest 382 440 16,500 -1,548 Descending Houston Center
Sat 04:30:29 PM 30.1853 -97.6656 210° Southwest 372 428 15,200 -1,122 Descending Houston Center
Sat 04:31:30 PM 30.0983 -97.7247 210° Southwest 361 415 14,200 -1,009 Descending Houston Center
Sat 04:32:16 PM 30.0269 -97.7753 212° Southwest 354 407 13,400 -1,065 Descending Houston Center
Sat 04:32:32 PM 30.0083 -97.7881 211° Southwest 356 410 13,100 -308 Descending Houston Center
Sat 04:33:34 PM 29.9178 -97.8500 211° Southwest 351 404 13,000 -48 Descending Houston Center
Sat 04:34:36 PM 29.8658 -97.9408 237° Southwest 344 396 13,000  Level Houston Center
Sat 04:35:38 PM 29.8203 -98.0478 244° Southwest 346 398 13,000 -439 Level Houston Center
Sat 04:36:39 PM 29.7831 -98.1347 244° Southwest 299 344 12,100 -1,366 Descending Houston Center
Sat 04:37:41 PM 29.7469 -98.2200 244° Southwest 298 343 10,200 -2,130 Descending Houston Center
Sat 04:38:57 PM 29.7031 -98.3244 244° Southwest 275 316 7,200 -1,887 Descending Houston Center
Sat 04:39:45 PM 29.6797 -98.3783 244° Southwest 251 289 6,300 -655 Descending Houston Center
Sat 04:40:47 PM 29.6506 -98.4469 244° Southwest 225 259 6,000 -484 Descending Houston Center
Sat 04:41:49 PM 29.6808 -98.5072 300° West 219 252 5,300 -846 Descending Houston Center
Sat 04:42:05 PM 29.6922 -98.5278 303° West 227 261 4,900 -1,452 Descending Houston Center
Sat 04:42:51 PM 29.7125 -98.5725 298° West 236 272 3,800 -1,435 Descending Houston Center

Login

Don't have an account? Register now (free) for customized features, flight alerts, and more!